Cowee, North Carolina
Current Conditions -  °F | °C
As of 9:10 AM on Friday 24 Oct 2014 (Local Time) from KRHP Reporting Station
Clear Clear  
Wind Chill: 41°   Ceiling: Unl
Heat Index: 41°   Visibility: 10mi
Dew Point: 40°   Wind: 0mph
Humidity: 97%   Direction: NA
Pressure: 30.11"   Gusts: NA
Location:  35.1737°N, 83.4215°W
Report Text: KRHP 241310Z AUTO 00000KT 10SM CLR 05/05 A3011 RMK AO2 T00500045
Loading
Personal Weather Stations






























Interactive Weather Map
Tropical Storm Tracking
New forecast layout! Learn more

10-Day Weather Forecast

Advertisements
Track Severe Weather on mobile